Lorain, Ohio
Current Conditions -  °F | °C
As of 8:53 PM on Friday 28 Nov 2014 (Local Time) from KLPR Reporting Station
Overcast Overcast  
Wind Chill: 17°   Ceiling: 11000
Heat Index: 27°   Visibility: 10mi
Dew Point: 21°   Wind: 10mph
Humidity: 78%   Direction: 180°S
Pressure: 30.15"   Gusts: NA
Location:  41.47°N, 82.18°W
Report Text: KLPR 290153Z AUTO 18009KT 10SM SCT075 OVC110 M03/M06 A3015 RMK AO2 SLP222 T10281061 TSNO
Loading
Personal Weather Stations






























Interactive Weather Map New forecast layout! Learn more

10-Day Weather Forecast

Advertisements
Track Severe Weather on mobile